createdAt,value
2024-03-09T00:05:23.631Z,1015.82
2024-03-09T00:15:28.921Z,1015.76
2024-03-09T00:25:34.291Z,1015.62
2024-03-09T00:35:39.549Z,1015.58
2024-03-09T00:45:44.820Z,1015.45
2024-03-09T00:55:50.079Z,1015.33
2024-03-09T01:05:55.472Z,1015.21
2024-03-09T01:16:00.634Z,1015.15
2024-03-09T01:26:06.180Z,1015.09
2024-03-09T01:36:12.073Z,1015.01
2024-03-09T01:46:17.361Z,1014.93
2024-03-09T01:56:22.533Z,1014.94
2024-03-09T02:06:27.867Z,1014.86
2024-03-09T02:16:33.102Z,1014.80
2024-03-09T02:26:38.984Z,1014.64
2024-03-09T02:36:44.030Z,1014.48
2024-03-09T02:46:49.141Z,1014.43
2024-03-09T02:56:54.516Z,1014.39
2024-03-09T03:06:59.568Z,1014.34
2024-03-09T03:17:04.893Z,1014.26
2024-03-09T03:27:10.092Z,1014.27
2024-03-09T03:37:15.690Z,1014.18
2024-03-09T03:47:20.821Z,1014.07
2024-03-09T03:57:26.065Z,1014.05
2024-03-09T04:07:31.432Z,1014.03
2024-03-09T04:17:36.803Z,1013.89
2024-03-09T04:27:42.189Z,1013.76
2024-03-09T04:37:47.287Z,1013.66
2024-03-09T04:47:52.201Z,1013.45
2024-03-09T04:57:57.504Z,1013.40
2024-03-09T05:08:02.812Z,1013.39
2024-03-09T05:18:08.167Z,1013.28
2024-03-09T05:28:14.288Z,1013.42
2024-03-09T05:38:20.558Z,1013.33
2024-03-09T05:48:26.222Z,1013.41
2024-03-09T05:58:31.753Z,1013.37
2024-03-09T06:08:36.859Z,1013.24
2024-03-09T06:18:42.110Z,1013.26
2024-03-09T06:28:47.467Z,1013.17
2024-03-09T06:38:52.939Z,1013.22
2024-03-09T06:48:57.957Z,1013.25
2024-03-09T06:59:03.325Z,1013.13
2024-03-09T07:09:08.894Z,1013.08
2024-03-09T07:19:14.094Z,1012.95
2024-03-09T07:29:19.948Z,1012.87
2024-03-09T07:39:25.770Z,1012.93
2024-03-09T07:49:31.301Z,1012.86
2024-03-09T07:59:36.826Z,1012.80
2024-03-09T08:09:42.247Z,1012.76
2024-03-09T08:19:47.365Z,1012.63
2024-03-09T08:29:52.588Z,1012.52
2024-03-09T08:39:58.107Z,1012.37
2024-03-09T08:50:03.562Z,1012.25
2024-03-09T09:00:08.962Z,1012.07
2024-03-09T09:10:14.131Z,1011.99
2024-03-09T09:20:19.717Z,1011.81
2024-03-09T09:30:25.171Z,1011.69
2024-03-09T09:40:30.561Z,1011.55
2024-03-09T09:50:35.976Z,1011.52
2024-03-09T10:00:41.108Z,1011.40
2024-03-09T10:10:46.331Z,1011.38
2024-03-09T10:20:52.073Z,1011.34
2024-03-09T10:30:57.387Z,1011.08
2024-03-09T10:41:02.937Z,1010.95
2024-03-09T10:51:08.307Z,1010.88
2024-03-09T11:01:15.504Z,1010.76
2024-03-09T11:11:21.253Z,1010.51
2024-03-09T11:21:26.681Z,1010.43
2024-03-09T11:31:32.006Z,1010.39
2024-03-09T11:41:37.269Z,1010.26
2024-03-09T11:51:42.594Z,1010.17
2024-03-09T12:01:48.143Z,1010.13
2024-03-09T12:11:53.521Z,1010.07
2024-03-09T12:21:59.115Z,1009.98
2024-03-09T12:32:04.619Z,1009.88
2024-03-09T12:42:09.832Z,1009.73
2024-03-09T12:52:15.626Z,1009.66
2024-03-09T13:02:20.711Z,1009.64
2024-03-09T13:12:26.101Z,1009.45
2024-03-09T13:22:31.377Z,1009.41
2024-03-09T13:32:36.884Z,1009.29
2024-03-09T13:42:42.142Z,1009.18
2024-03-09T13:52:47.433Z,1008.96
2024-03-09T14:02:52.533Z,1008.87
2024-03-09T14:12:57.638Z,1008.76
2024-03-09T14:23:02.751Z,1008.70
2024-03-09T14:33:08.200Z,1008.55
2024-03-09T14:43:13.360Z,1008.47
2024-03-09T14:53:18.585Z,1008.45
2024-03-09T15:03:24.426Z,1008.40
2024-03-09T15:13:29.506Z,1008.44
2024-03-09T15:23:34.678Z,1008.39
2024-03-09T15:33:40.141Z,1008.27
2024-03-09T15:43:45.646Z,1008.32
2024-03-09T15:53:51.390Z,1008.27
2024-03-09T16:03:56.738Z,1008.21
2024-03-09T16:14:01.987Z,1008.20
2024-03-09T16:24:07.009Z,1008.21
2024-03-09T16:34:12.184Z,1008.21
2024-03-09T16:44:17.381Z,1008.20
2024-03-09T16:54:22.753Z,1008.17
2024-03-09T17:04:28.239Z,1008.21
2024-03-09T17:14:33.800Z,1008.26
2024-03-09T17:24:39.239Z,1008.26
2024-03-09T17:34:44.562Z,1008.29
2024-03-09T17:44:50.258Z,1008.27
2024-03-09T17:54:55.308Z,1008.26
2024-03-09T18:05:00.997Z,1008.25
2024-03-09T18:15:06.320Z,1008.12
2024-03-09T18:25:11.684Z,1008.17
2024-03-09T18:35:17.195Z,1008.18
2024-03-09T18:45:22.761Z,1008.24
2024-03-09T18:55:28.038Z,1008.18
2024-03-09T19:05:33.491Z,1008.09
2024-03-09T19:15:39.123Z,1008.07
2024-03-09T19:25:44.546Z,1008.10
2024-03-09T19:35:49.585Z,1008.00
2024-03-09T19:45:54.816Z,1008.02
2024-03-09T19:56:00.181Z,1007.93
2024-03-09T20:06:05.663Z,1007.90
2024-03-09T20:17:31.050Z,1007.95
2024-03-09T20:27:35.386Z,1007.94
2024-03-09T20:37:40.632Z,1007.92
2024-03-09T20:47:45.893Z,1007.89
2024-03-09T20:57:51.259Z,1007.89
2024-03-09T21:07:56.557Z,1007.84
2024-03-09T21:18:01.749Z,1007.87
2024-03-09T21:28:07.123Z,1007.75
2024-03-09T21:38:12.566Z,1007.73
2024-03-09T21:48:18.131Z,1007.57
2024-03-09T21:58:23.474Z,1007.52
2024-03-09T22:08:28.506Z,1007.45
2024-03-09T22:18:33.972Z,1007.41
2024-03-09T22:28:39.081Z,1007.40
2024-03-09T22:38:44.324Z,1007.42
2024-03-09T22:48:50.083Z,1007.41
2024-03-09T22:58:55.123Z,1007.35
2024-03-09T23:09:00.395Z,1007.37
2024-03-09T23:19:06.665Z,1007.47
2024-03-09T23:29:12.604Z,1007.43
2024-03-09T23:39:18.652Z,1007.44
2024-03-09T23:49:24.379Z,1007.49
2024-03-09T23:59:30.443Z,1007.52
